createdAt,value
2016-10-25T00:00:55.466Z,0
2016-10-25T00:01:54.260Z,0
2016-10-25T00:02:54.509Z,0
2016-10-25T00:03:54.382Z,0
2016-10-25T00:04:54.218Z,0
2016-10-25T00:05:57.235Z,0
2016-10-25T00:06:56.699Z,0
2016-10-25T00:07:55.664Z,0
2016-10-25T00:08:55.409Z,0
2016-10-25T00:09:55.061Z,0
2016-10-25T00:10:54.448Z,0
2016-10-25T00:11:54.152Z,0
2016-10-25T00:12:54.140Z,0
2016-10-25T00:13:54.129Z,0
2016-10-25T00:14:54.134Z,0
2016-10-25T00:15:54.124Z,0
2016-10-25T00:16:54.113Z,0
2016-10-25T00:17:54.114Z,0
2016-10-25T00:18:54.112Z,0
2016-10-25T00:19:54.098Z,0
2016-10-25T00:20:54.134Z,0
2016-10-25T00:21:54.077Z,0
2016-10-25T00:22:54.368Z,0
2016-10-25T00:23:54.062Z,0
2016-10-25T00:24:54.048Z,0
2016-10-25T00:25:54.045Z,0
2016-10-25T00:26:54.038Z,0
2016-10-25T00:27:54.018Z,0
2016-10-25T00:28:54.020Z,0
2016-10-25T00:29:54.321Z,0
2016-10-25T00:30:53.996Z,0
2016-10-25T00:31:53.992Z,0
2016-10-25T00:32:53.988Z,0
2016-10-25T00:33:53.982Z,0
2016-10-25T00:34:53.975Z,0
2016-10-25T00:35:53.962Z,0
2016-10-25T00:36:53.957Z,0
2016-10-25T00:37:53.946Z,0
2016-10-25T00:38:53.942Z,0
2016-10-25T00:39:54.230Z,0
2016-10-25T00:40:53.928Z,0
2016-10-25T00:41:53.912Z,0
2016-10-25T00:42:53.908Z,0
2016-10-25T00:43:53.915Z,0
2016-10-25T00:44:53.898Z,0
2016-10-25T00:45:53.884Z,0
2016-10-25T00:46:53.884Z,0
2016-10-25T00:47:53.880Z,0
2016-10-25T00:48:53.867Z,0
2016-10-25T00:49:55.909Z,0
2016-10-25T00:50:55.644Z,0
2016-10-25T00:51:54.392Z,0
2016-10-25T00:52:54.231Z,0
2016-10-25T00:53:54.876Z,0
2016-10-25T00:54:53.817Z,0
2016-10-25T00:55:53.843Z,0
2016-10-25T00:56:54.199Z,0
2016-10-25T00:57:53.826Z,0
2016-10-25T00:58:54.691Z,0
2016-10-25T00:59:54.876Z,0
2016-10-25T01:00:54.316Z,0
2016-10-25T01:02:08.733Z,0
2016-10-25T01:02:54.458Z,0
2016-10-25T01:03:55.513Z,0
2016-10-25T01:04:53.739Z,0
2016-10-25T01:05:53.730Z,0
2016-10-25T01:06:53.724Z,0
2016-10-25T01:07:53.713Z,0
2016-10-25T01:08:53.704Z,0
2016-10-25T01:09:53.698Z,0
2016-10-25T01:10:53.692Z,0
2016-10-25T01:11:53.685Z,0
2016-10-25T01:12:53.673Z,0
2016-10-25T01:13:53.679Z,0
2016-10-25T01:15:55.180Z,0
2016-10-25T01:16:56.452Z,0
2016-10-25T01:17:54.284Z,0
2016-10-25T01:18:54.194Z,0
2016-10-25T01:19:53.621Z,0
2016-10-25T01:20:54.477Z,0
2016-10-25T01:21:53.905Z,0
2016-10-25T01:22:53.609Z,0
2016-10-25T01:23:55.908Z,0
2016-10-25T01:24:57.812Z,0
2016-10-25T01:25:56.249Z,0
2016-10-25T01:26:54.757Z,0
2016-10-25T01:27:55.217Z,0
2016-10-25T01:28:53.543Z,0
2016-10-25T01:29:54.530Z,0
2016-10-25T01:30:53.526Z,0
2016-10-25T01:31:53.583Z,0
2016-10-25T01:32:53.525Z,0
2016-10-25T01:33:53.507Z,0
2016-10-25T01:34:54.102Z,0
2016-10-25T01:35:53.484Z,0
2016-10-25T01:36:53.477Z,0
2016-10-25T01:37:53.476Z,0
2016-10-25T01:38:53.793Z,0
2016-10-25T01:39:53.458Z,0
2016-10-25T01:40:53.454Z,0
2016-10-25T01:41:53.447Z,0
2016-10-25T01:42:53.434Z,0
2016-10-25T01:43:53.434Z,0
2016-10-25T01:44:53.428Z,0
2016-10-25T01:45:53.420Z,0
2016-10-25T01:46:53.418Z,0
2016-10-25T01:47:53.432Z,0
2016-10-25T01:48:53.385Z,0
2016-10-25T01:49:53.380Z,0
2016-10-25T01:50:53.375Z,0
2016-10-25T01:51:53.363Z,0
2016-10-25T01:52:53.401Z,0
2016-10-25T01:53:53.352Z,0
2016-10-25T01:54:53.336Z,0
2016-10-25T01:55:53.341Z,0
2016-10-25T01:56:53.325Z,0
2016-10-25T01:57:53.329Z,0
2016-10-25T01:58:53.309Z,0
2016-10-25T01:59:53.330Z,0
2016-10-25T02:00:53.288Z,0
2016-10-25T02:01:53.276Z,0
2016-10-25T02:02:53.271Z,0
2016-10-25T02:03:53.573Z,0
2016-10-25T02:04:53.273Z,0
2016-10-25T02:05:53.302Z,0
2016-10-25T02:06:53.246Z,0
2016-10-25T02:08:09.056Z,0
2016-10-25T02:08:54.032Z,0
2016-10-25T02:11:53.383Z,0
2016-10-25T02:13:53.240Z,0
2016-10-25T02:14:53.182Z,0
2016-10-25T02:15:53.184Z,0
2016-10-25T02:16:54.224Z,0
2016-10-25T02:17:53.666Z,0
2016-10-25T02:18:53.857Z,0
2016-10-25T02:20:08.457Z,0
2016-10-25T02:21:08.054Z,0
2016-10-25T02:21:54.141Z,0
2016-10-25T02:22:53.112Z,0
2016-10-25T02:23:53.108Z,0
2016-10-25T02:24:53.114Z,0
2016-10-25T02:25:53.109Z,0
2016-10-25T02:26:53.116Z,0
2016-10-25T02:27:53.083Z,0
2016-10-25T02:28:53.082Z,0
2016-10-25T02:29:53.062Z,0
2016-10-25T02:30:53.060Z,0
2016-10-25T02:31:53.065Z,0
2016-10-25T02:32:56.151Z,0
2016-10-25T02:33:56.639Z,0
2016-10-25T02:34:55.589Z,0
2016-10-25T02:35:54.626Z,0
2016-10-25T02:36:53.434Z,0
2016-10-25T02:37:53.443Z,0
2016-10-25T02:38:53.213Z,0
2016-10-25T02:39:52.978Z,0
2016-10-25T02:40:52.981Z,0
2016-10-25T02:42:55.257Z,0
2016-10-25T02:43:56.327Z,0
2016-10-25T02:44:55.655Z,0
2016-10-25T02:45:54.082Z,0
2016-10-25T02:46:52.929Z,0
2016-10-25T02:47:52.929Z,0
2016-10-25T02:48:52.910Z,0
2016-10-25T02:49:52.902Z,0
2016-10-25T02:50:52.900Z,0
2016-10-25T02:51:52.897Z,0
2016-10-25T02:52:52.883Z,0
2016-10-25T02:53:52.865Z,0
2016-10-25T02:54:52.860Z,0
2016-10-25T02:55:52.892Z,0
2016-10-25T02:56:52.848Z,0
2016-10-25T02:57:52.829Z,0
2016-10-25T02:58:52.829Z,0
2016-10-25T02:59:52.866Z,0
2016-10-25T03:00:52.812Z,0
2016-10-25T03:01:52.857Z,0
2016-10-25T03:02:52.792Z,0
2016-10-25T03:03:52.804Z,0
2016-10-25T03:04:52.786Z,0
2016-10-25T03:05:52.813Z,0
2016-10-25T03:06:52.765Z,0
2016-10-25T03:07:52.758Z,0
2016-10-25T03:08:52.783Z,0
2016-10-25T03:09:52.740Z,0
2016-10-25T03:10:52.731Z,0
2016-10-25T03:11:52.732Z,0
2016-10-25T03:12:52.719Z,0
2016-10-25T03:13:52.706Z,0
2016-10-25T03:14:52.695Z,0
2016-10-25T03:15:52.691Z,0
2016-10-25T03:16:53.029Z,0
2016-10-25T03:17:52.675Z,0
2016-10-25T03:18:52.664Z,0
2016-10-25T03:19:52.663Z,0
2016-10-25T03:20:52.645Z,0
2016-10-25T03:21:52.648Z,0
2016-10-25T03:22:52.639Z,0
2016-10-25T03:23:52.625Z,0
2016-10-25T03:24:52.620Z,0
2016-10-25T03:25:52.607Z,0
2016-10-25T03:27:09.273Z,0
2016-10-25T03:27:53.850Z,0
2016-10-25T03:29:08.202Z,0
2016-10-25T03:29:52.973Z,0
2016-10-25T03:30:52.574Z,0
2016-10-25T03:31:52.557Z,0
2016-10-25T03:32:52.555Z,0
2016-10-25T03:33:52.643Z,0
2016-10-25T03:34:52.548Z,0
2016-10-25T03:35:54.732Z,0
2016-10-25T03:36:53.230Z,0
2016-10-25T03:38:09.027Z,0
2016-10-25T03:38:52.755Z,0
2016-10-25T03:39:53.546Z,0
2016-10-25T03:40:53.445Z,0
2016-10-25T03:41:52.483Z,0
2016-10-25T03:42:52.472Z,0
2016-10-25T03:43:52.467Z,0
2016-10-25T03:44:52.504Z,0
2016-10-25T03:45:52.454Z,0
2016-10-25T03:46:52.449Z,0
2016-10-25T03:47:52.432Z,0
2016-10-25T03:48:52.424Z,0
2016-10-25T03:49:52.414Z,0
2016-10-25T03:50:52.417Z,0
2016-10-25T03:51:55.434Z,0
2016-10-25T03:52:55.363Z,0
2016-10-25T03:53:55.297Z,0
2016-10-25T03:54:54.196Z,0
2016-10-25T03:55:53.035Z,0
2016-10-25T03:56:52.356Z,0
2016-10-25T03:57:52.348Z,0
2016-10-25T03:58:52.345Z,0
2016-10-25T03:59:52.351Z,0
2016-10-25T04:00:54.173Z,0
2016-10-25T04:01:54.760Z,0
2016-10-25T04:02:53.249Z,0
2016-10-25T04:03:52.762Z,0
2016-10-25T04:04:52.299Z,0
2016-10-25T04:05:53.317Z,0
2016-10-25T04:06:52.312Z,0
2016-10-25T04:07:52.274Z,0
2016-10-25T04:08:52.272Z,0
2016-10-25T04:09:52.258Z,0
2016-10-25T04:10:52.242Z,0
2016-10-25T04:11:52.279Z,0
2016-10-25T04:12:52.233Z,0
2016-10-25T04:13:52.231Z,0
2016-10-25T04:14:52.210Z,0
2016-10-25T04:15:52.196Z,0
2016-10-25T04:16:52.503Z,0
2016-10-25T04:17:52.192Z,0
2016-10-25T04:18:52.178Z,0
2016-10-25T04:19:52.177Z,0
2016-10-25T04:20:52.162Z,0
2016-10-25T04:21:52.155Z,0
2016-10-25T04:22:52.138Z,0
2016-10-25T04:23:52.140Z,0
2016-10-25T04:24:52.131Z,0
2016-10-25T04:25:52.467Z,0
2016-10-25T04:26:52.115Z,0
2016-10-25T04:27:52.108Z,0
2016-10-25T04:28:52.099Z,0
2016-10-25T04:29:52.084Z,0
2016-10-25T04:30:52.082Z,0
2016-10-25T04:31:52.077Z,0
2016-10-25T04:32:52.071Z,0
2016-10-25T04:33:52.057Z,0
2016-10-25T04:34:52.047Z,0
2016-10-25T04:35:52.032Z,0
2016-10-25T04:36:52.333Z,0
2016-10-25T04:37:52.024Z,0
2016-10-25T04:38:52.321Z,0
2016-10-25T04:39:52.012Z,0
2016-10-25T04:40:51.999Z,0
2016-10-25T04:41:52.299Z,0
2016-10-25T04:42:51.982Z,0
2016-10-25T04:43:51.973Z,0
2016-10-25T04:44:52.919Z,0
2016-10-25T04:45:52.815Z,0
2016-10-25T04:46:53.356Z,0
2016-10-25T04:47:53.399Z,0
2016-10-25T04:48:51.928Z,0
2016-10-25T04:49:52.280Z,0
2016-10-25T04:50:51.924Z,0
2016-10-25T04:51:51.908Z,0
2016-10-25T04:52:51.911Z,0
2016-10-25T04:53:55.556Z,0
2016-10-25T04:54:53.087Z,0
2016-10-25T04:55:52.785Z,0
2016-10-25T04:56:52.215Z,0
2016-10-25T04:57:52.060Z,0
2016-10-25T04:58:51.850Z,0
2016-10-25T04:59:51.844Z,0
2016-10-25T05:00:51.834Z,0
2016-10-25T05:01:51.825Z,0
2016-10-25T05:02:51.821Z,0
2016-10-25T05:03:52.148Z,0
2016-10-25T05:04:51.808Z,0
2016-10-25T05:05:51.809Z,0
2016-10-25T05:06:51.799Z,0
2016-10-25T05:07:51.775Z,0
2016-10-25T05:08:51.770Z,0
2016-10-25T05:09:54.369Z,0
2016-10-25T05:10:54.018Z,0
2016-10-25T05:11:53.265Z,0
2016-10-25T05:12:53.253Z,0
2016-10-25T05:13:53.201Z,0
2016-10-25T05:14:52.772Z,0
2016-10-25T05:15:51.715Z,0
2016-10-25T05:16:52.001Z,0
2016-10-25T05:17:51.992Z,0
2016-10-25T05:18:53.398Z,0
2016-10-25T05:20:53.900Z,0
2016-10-25T05:21:52.404Z,0
2016-10-25T05:22:52.919Z,0
2016-10-25T05:23:52.967Z,0
2016-10-25T05:24:52.163Z,0
2016-10-25T05:25:51.630Z,0
2016-10-25T05:26:51.634Z,0
2016-10-25T05:27:51.618Z,0
2016-10-25T05:28:51.609Z,0
2016-10-25T05:29:51.635Z,0
2016-10-25T05:30:51.600Z,0
2016-10-25T05:31:51.577Z,0
2016-10-25T05:32:51.570Z,0
2016-10-25T05:33:51.574Z,0
2016-10-25T05:34:51.570Z,0
2016-10-25T05:35:51.608Z,0
2016-10-25T05:36:51.855Z,0
2016-10-25T05:37:51.848Z,0
2016-10-25T05:38:51.528Z,0
2016-10-25T05:39:51.526Z,0
2016-10-25T05:40:51.544Z,0
2016-10-25T05:41:51.499Z,0
2016-10-25T05:42:51.799Z,0
2016-10-25T05:43:51.487Z,0
2016-10-25T05:44:51.515Z,0
2016-10-25T05:45:51.469Z,0
2016-10-25T05:46:51.461Z,0
2016-10-25T05:47:51.452Z,0
2016-10-25T05:48:51.450Z,0
2016-10-25T05:49:51.439Z,0
2016-10-25T05:50:51.460Z,0
2016-10-25T05:51:51.420Z,0
2016-10-25T05:52:51.409Z,0
2016-10-25T05:53:51.402Z,0
2016-10-25T05:54:51.395Z,0
2016-10-25T05:55:51.392Z,0
2016-10-25T05:56:51.686Z,0
2016-10-25T05:57:51.377Z,0
2016-10-25T05:58:51.366Z,5
2016-10-25T05:59:51.351Z,5
2016-10-25T06:00:51.345Z,5
2016-10-25T06:01:51.344Z,5
2016-10-25T06:03:07.399Z,5
2016-10-25T06:03:52.431Z,5
2016-10-25T06:04:52.268Z,5
2016-10-25T06:05:51.859Z,5
2016-10-25T06:07:06.514Z,5
2016-10-25T06:07:51.636Z,5
2016-10-25T06:08:52.041Z,10
2016-10-25T06:09:51.286Z,10
2016-10-25T06:10:51.411Z,10
2016-10-25T06:11:51.561Z,10
2016-10-25T06:13:08.018Z,10
2016-10-25T06:13:51.830Z,10
2016-10-25T06:14:52.882Z,10
2016-10-25T06:15:51.731Z,10
2016-10-25T06:16:52.572Z,15
2016-10-25T06:17:51.505Z,15
2016-10-25T06:18:51.531Z,20
2016-10-25T06:19:51.340Z,20
2016-10-25T06:20:51.180Z,25
2016-10-25T06:21:51.214Z,30
2016-10-25T06:22:51.475Z,35
2016-10-25T06:23:51.493Z,35
2016-10-25T06:24:51.508Z,35
2016-10-25T06:25:51.144Z,35
2016-10-25T06:26:51.137Z,40
2016-10-25T06:28:52.937Z,40
2016-10-25T06:29:53.537Z,40
2016-10-25T06:30:52.440Z,40
2016-10-25T06:31:53.363Z,40
2016-10-25T06:32:51.162Z,45
2016-10-25T06:33:51.075Z,50
2016-10-25T06:34:51.070Z,50
2016-10-25T06:35:51.060Z,50
2016-10-25T06:37:55.683Z,60
2016-10-25T06:38:53.043Z,65
2016-10-25T06:39:52.442Z,65
2016-10-25T06:40:51.014Z,65
2016-10-25T06:41:51.881Z,65
2016-10-25T06:42:51.924Z,75
2016-10-25T06:43:51.311Z,70
2016-10-25T06:44:50.985Z,70
2016-10-25T06:45:50.970Z,75
2016-10-25T06:46:50.973Z,70
2016-10-25T06:47:50.973Z,65
2016-10-25T06:48:50.961Z,65
2016-10-25T06:49:50.956Z,65
2016-10-25T06:50:50.937Z,60
2016-10-25T06:51:50.931Z,60
2016-10-25T06:52:50.957Z,65
2016-10-25T06:53:51.211Z,65
2016-10-25T06:54:50.910Z,65
2016-10-25T06:55:50.897Z,60
2016-10-25T06:56:50.889Z,60
2016-10-25T06:57:50.905Z,55
2016-10-25T06:58:50.873Z,55
2016-10-25T06:59:50.868Z,60
2016-10-25T07:00:50.864Z,65
2016-10-25T07:01:50.852Z,70
2016-10-25T07:02:50.847Z,65
2016-10-25T07:03:50.861Z,70
2016-10-25T07:04:50.823Z,65
2016-10-25T07:05:50.827Z,65
2016-10-25T07:06:50.801Z,70
2016-10-25T07:07:50.798Z,70
2016-10-25T07:08:50.794Z,70
2016-10-25T07:09:50.779Z,80
2016-10-25T07:10:50.789Z,80
2016-10-25T07:11:50.765Z,85
2016-10-25T07:12:50.758Z,85
2016-10-25T07:13:50.771Z,80
2016-10-25T07:14:50.744Z,90
2016-10-25T07:15:50.775Z,90
2016-10-25T07:16:51.065Z,85
2016-10-25T07:17:50.727Z,80
2016-10-25T07:18:50.744Z,80
2016-10-25T07:19:51.007Z,70
2016-10-25T07:20:50.704Z,70
2016-10-25T07:21:52.150Z,80
2016-10-25T07:22:51.988Z,90
2016-10-25T07:23:51.136Z,95
2016-10-25T07:24:51.924Z,90
2016-10-25T07:25:50.675Z,105
2016-10-25T07:26:50.654Z,100
2016-10-25T07:27:50.652Z,110
2016-10-25T07:28:50.792Z,110
2016-10-25T07:29:50.624Z,105
2016-10-25T07:31:06.040Z,95
2016-10-25T07:31:52.359Z,100
2016-10-25T07:33:05.923Z,105
2016-10-25T07:34:51.199Z,135
2016-10-25T07:35:51.130Z,140
2016-10-25T07:36:50.576Z,140
2016-10-25T07:37:51.032Z,165
2016-10-25T07:38:50.599Z,170
2016-10-25T07:39:50.603Z,175
2016-10-25T07:40:50.546Z,170
2016-10-25T07:41:50.542Z,170
2016-10-25T07:42:50.531Z,150
2016-10-25T07:43:50.563Z,145
2016-10-25T07:44:50.521Z,145
2016-10-25T07:45:52.075Z,140
2016-10-25T07:46:52.370Z,135
2016-10-25T07:47:54.346Z,135
2016-10-25T07:48:51.339Z,135
2016-10-25T07:49:51.067Z,125
2016-10-25T07:50:50.507Z,120
2016-10-25T07:51:50.501Z,115
2016-10-25T07:52:50.461Z,115
2016-10-25T07:53:50.463Z,125
2016-10-25T07:54:50.444Z,125
2016-10-25T07:55:52.204Z,120
2016-10-25T07:56:54.443Z,120
2016-10-25T07:57:51.700Z,120
2016-10-25T07:58:52.180Z,120
2016-10-25T07:59:51.461Z,115
2016-10-25T08:00:50.431Z,110
2016-10-25T08:01:50.528Z,95
2016-10-25T08:02:50.379Z,80
2016-10-25T08:03:50.376Z,65
2016-10-25T08:04:50.372Z,60
2016-10-25T08:05:50.661Z,60
2016-10-25T08:06:50.368Z,60
2016-10-25T08:07:50.347Z,65
2016-10-25T08:08:50.350Z,75
2016-10-25T08:09:50.350Z,75
2016-10-25T08:10:50.323Z,75
2016-10-25T08:11:50.322Z,80
2016-10-25T08:12:50.608Z,85
2016-10-25T08:13:50.307Z,90
2016-10-25T08:14:50.309Z,95
2016-10-25T08:15:50.304Z,105
2016-10-25T08:16:50.327Z,125
2016-10-25T08:17:50.283Z,135
2016-10-25T08:18:50.571Z,145
2016-10-25T08:19:50.257Z,155
2016-10-25T08:20:50.547Z,160
2016-10-25T08:21:50.258Z,165
2016-10-25T08:22:50.554Z,160
2016-10-25T08:23:50.234Z,150
2016-10-25T08:24:50.231Z,155
2016-10-25T08:25:50.223Z,160
2016-10-25T08:26:50.204Z,170
2016-10-25T08:27:50.200Z,180
2016-10-25T08:28:50.205Z,180
2016-10-25T08:29:50.185Z,170
2016-10-25T08:30:50.219Z,150
2016-10-25T08:31:50.497Z,135
2016-10-25T08:32:50.288Z,130
2016-10-25T08:33:50.170Z,130
2016-10-25T08:34:50.156Z,130
2016-10-25T08:35:50.150Z,130
2016-10-25T08:36:50.147Z,125
2016-10-25T08:37:50.143Z,115
2016-10-25T08:38:50.134Z,115
2016-10-25T08:41:05.181Z,105
2016-10-25T08:42:05.768Z,100
2016-10-25T08:43:05.028Z,95
2016-10-25T08:43:50.091Z,100
2016-10-25T08:44:50.492Z,110
2016-10-25T08:45:50.386Z,115
2016-10-25T08:46:50.385Z,120
2016-10-25T08:47:50.066Z,125
2016-10-25T08:49:19.887Z,130
2016-10-25T08:51:50.687Z,120
2016-10-25T08:53:04.953Z,135
2016-10-25T08:53:50.062Z,145
2016-10-25T08:54:50.035Z,170
2016-10-25T08:55:50.026Z,200
2016-10-25T08:56:50.023Z,220
2016-10-25T08:57:50.002Z,245
2016-10-25T08:58:49.989Z,265
2016-10-25T08:59:49.991Z,290
2016-10-25T09:00:49.982Z,310
2016-10-25T09:01:49.982Z,320
2016-10-25T09:02:49.979Z,325
2016-10-25T09:03:49.979Z,325
2016-10-25T09:04:53.179Z,325
2016-10-25T09:05:52.296Z,325
2016-10-25T09:06:51.473Z,320
2016-10-25T09:07:51.445Z,330
2016-10-25T09:08:51.293Z,330
2016-10-25T09:09:50.661Z,335
2016-10-25T09:10:49.927Z,335
2016-10-25T09:11:49.959Z,350
2016-10-25T09:12:50.225Z,365
2016-10-25T09:13:55.961Z,365
2016-10-25T09:14:51.786Z,370
2016-10-25T09:15:51.549Z,370
2016-10-25T09:16:51.979Z,360
2016-10-25T09:17:50.177Z,355
2016-10-25T09:18:49.875Z,360
2016-10-25T09:19:49.889Z,380
2016-10-25T09:20:49.876Z,400
2016-10-25T09:21:49.978Z,405
2016-10-25T09:22:49.866Z,415
2016-10-25T09:23:49.862Z,420
2016-10-25T09:24:49.850Z,430
2016-10-25T09:25:49.854Z,455
2016-10-25T09:26:49.843Z,420
2016-10-25T09:27:49.847Z,390
2016-10-25T09:28:49.843Z,360
2016-10-25T09:29:49.827Z,340
2016-10-25T09:30:50.144Z,330
2016-10-25T09:31:49.822Z,330
2016-10-25T09:32:49.822Z,330
2016-10-25T09:33:49.810Z,330
2016-10-25T09:34:49.853Z,330
2016-10-25T09:35:49.844Z,330
2016-10-25T09:36:49.802Z,335
2016-10-25T09:37:49.807Z,340
2016-10-25T09:38:49.786Z,335
2016-10-25T09:39:49.783Z,330
2016-10-25T09:40:49.794Z,330
2016-10-25T09:41:49.783Z,320
2016-10-25T09:42:49.777Z,300
2016-10-25T09:43:49.802Z,275
2016-10-25T09:44:49.767Z,265
2016-10-25T09:45:49.769Z,255
2016-10-25T09:46:49.757Z,250
2016-10-25T09:47:49.756Z,230
2016-10-25T09:48:49.751Z,235
2016-10-25T09:49:49.746Z,245
2016-10-25T09:50:49.746Z,265
2016-10-25T09:51:49.743Z,285
2016-10-25T09:52:49.933Z,345
2016-10-25T09:53:49.739Z,405
2016-10-25T09:54:49.724Z,435
2016-10-25T09:55:49.722Z,435
2016-10-25T09:56:49.731Z,415
2016-10-25T09:58:06.429Z,370
2016-10-25T09:59:05.366Z,325
2016-10-25T09:59:50.868Z,305
2016-10-25T10:02:50.894Z,340
2016-10-25T10:03:49.885Z,345
2016-10-25T10:04:49.680Z,360
2016-10-25T10:05:49.675Z,330
2016-10-25T10:08:06.443Z,260
2016-10-25T10:09:20.779Z,265
2016-10-25T10:09:50.608Z,265
2016-10-25T10:11:50.142Z,270
2016-10-25T10:12:49.651Z,265
2016-10-25T10:13:49.647Z,270
2016-10-25T10:14:49.674Z,265
2016-10-25T10:15:49.656Z,255
2016-10-25T10:16:49.632Z,235
2016-10-25T10:17:49.929Z,215
2016-10-25T10:18:49.641Z,200
2016-10-25T10:19:49.618Z,195
2016-10-25T10:20:49.921Z,185
2016-10-25T10:21:49.611Z,175
2016-10-25T10:23:52.565Z,150
2016-10-25T10:24:51.492Z,145
2016-10-25T10:25:50.574Z,145
2016-10-25T10:26:49.597Z,140
2016-10-25T10:27:49.591Z,140
2016-10-25T10:28:49.589Z,160
2016-10-25T10:29:49.578Z,200
2016-10-25T10:30:49.588Z,220
2016-10-25T10:31:52.641Z,235
2016-10-25T10:33:51.645Z,245
2016-10-25T10:34:51.200Z,245
2016-10-25T10:35:50.515Z,245
2016-10-25T10:36:50.869Z,230
2016-10-25T10:37:49.539Z,220
2016-10-25T10:38:49.833Z,225
2016-10-25T10:39:49.552Z,245
2016-10-25T10:40:49.525Z,265
2016-10-25T10:41:49.524Z,275
2016-10-25T10:42:49.520Z,270
2016-10-25T10:43:49.826Z,250
2016-10-25T10:44:49.514Z,225
2016-10-25T10:45:49.500Z,215
2016-10-25T10:46:49.507Z,205
2016-10-25T10:47:49.500Z,195
2016-10-25T10:48:49.496Z,170
2016-10-25T10:49:49.483Z,140
2016-10-25T10:50:49.484Z,125
2016-10-25T10:51:49.483Z,115
2016-10-25T10:52:49.482Z,105
2016-10-25T10:53:49.482Z,105
2016-10-25T10:54:49.472Z,100
2016-10-25T10:55:49.498Z,90
2016-10-25T10:56:49.459Z,85
2016-10-25T10:57:49.500Z,80
2016-10-25T10:58:49.757Z,80
2016-10-25T10:59:49.452Z,80
2016-10-25T11:00:49.457Z,85
2016-10-25T11:01:49.735Z,85
2016-10-25T11:02:49.429Z,80
2016-10-25T11:03:49.472Z,80
2016-10-25T11:04:49.513Z,85
2016-10-25T11:05:49.427Z,100
2016-10-25T11:06:49.715Z,115
2016-10-25T11:07:49.408Z,140
2016-10-25T11:08:49.395Z,170
2016-10-25T11:09:49.434Z,205
2016-10-25T11:10:49.395Z,225
2016-10-25T11:11:49.385Z,230
2016-10-25T11:12:49.392Z,220
2016-10-25T11:13:49.393Z,220
2016-10-25T11:14:49.372Z,210
2016-10-25T11:15:49.368Z,200
2016-10-25T11:16:51.161Z,200
2016-10-25T11:18:04.321Z,200
2016-10-25T11:19:04.577Z,190
2016-10-25T11:19:50.229Z,170
2016-10-25T11:20:49.392Z,145
2016-10-25T11:21:49.342Z,125
2016-10-25T11:22:49.330Z,105
2016-10-25T11:23:49.435Z,85
2016-10-25T11:24:49.927Z,75
2016-10-25T11:26:04.885Z,65
2016-10-25T11:26:52.227Z,60
2016-10-25T11:27:49.952Z,55
2016-10-25T11:29:49.854Z,55
2016-10-25T11:30:49.303Z,60
2016-10-25T11:31:49.638Z,65
2016-10-25T11:32:49.584Z,65
2016-10-25T11:33:49.280Z,70
2016-10-25T11:34:49.286Z,75
2016-10-25T11:35:49.268Z,75
2016-10-25T11:36:49.278Z,75
2016-10-25T11:37:49.255Z,75
2016-10-25T11:38:49.257Z,70
2016-10-25T11:39:49.247Z,65
2016-10-25T11:40:51.872Z,60
2016-10-25T11:42:51.275Z,75
2016-10-25T11:43:51.268Z,75
2016-10-25T11:44:50.125Z,75
2016-10-25T11:45:49.213Z,80
2016-10-25T11:46:49.554Z,90
2016-10-25T11:47:49.773Z,100
2016-10-25T11:48:49.192Z,100
2016-10-25T11:49:49.195Z,100
2016-10-25T11:50:50.820Z,95
2016-10-25T11:51:51.343Z,95
2016-10-25T11:52:51.786Z,90
2016-10-25T11:53:51.220Z,75
2016-10-25T11:54:50.427Z,70
2016-10-25T11:55:49.293Z,65
2016-10-25T11:56:49.864Z,65
2016-10-25T11:57:49.665Z,65
2016-10-25T11:58:49.148Z,65
2016-10-25T11:59:49.138Z,60
2016-10-25T12:00:49.149Z,65
2016-10-25T12:01:49.110Z,70
2016-10-25T12:02:49.417Z,70
2016-10-25T12:03:49.412Z,70
2016-10-25T12:04:49.095Z,65
2016-10-25T12:05:49.409Z,65
2016-10-25T12:06:49.103Z,60
2016-10-25T12:07:49.406Z,60
2016-10-25T12:08:49.088Z,55
2016-10-25T12:09:49.080Z,55
2016-10-25T12:10:49.077Z,55
2016-10-25T12:11:49.068Z,55
2016-10-25T12:12:49.059Z,55
2016-10-25T12:13:49.046Z,55
2016-10-25T12:14:49.079Z,60
2016-10-25T12:15:49.050Z,60
2016-10-25T12:16:49.036Z,65
2016-10-25T12:17:49.036Z,65
2016-10-25T12:18:49.031Z,65
2016-10-25T12:19:49.012Z,70
2016-10-25T12:20:49.008Z,65
2016-10-25T12:21:49.040Z,60
2016-10-25T12:22:49.005Z,55
2016-10-25T12:23:49.301Z,55
2016-10-25T12:24:48.989Z,45
2016-10-25T12:25:48.981Z,40
2016-10-25T12:26:48.968Z,45
2016-10-25T12:27:48.971Z,50
2016-10-25T12:28:48.962Z,60
2016-10-25T12:29:48.960Z,60
2016-10-25T12:30:49.305Z,60
2016-10-25T12:31:48.948Z,65
2016-10-25T12:32:48.944Z,65
2016-10-25T12:33:48.934Z,70
2016-10-25T12:35:19.703Z,110
2016-10-25T12:36:18.844Z,140
2016-10-25T12:37:05.637Z,140
2016-10-25T12:37:50.051Z,145
2016-10-25T12:39:03.909Z,145
2016-10-25T12:39:50.411Z,140
2016-10-25T12:40:48.890Z,135
2016-10-25T12:41:48.941Z,115
2016-10-25T12:42:48.882Z,100
2016-10-25T12:43:49.664Z,90
2016-10-25T12:45:04.939Z,90
2016-10-25T12:45:50.713Z,95
2016-10-25T12:47:49.099Z,110
2016-10-25T12:48:49.290Z,120
2016-10-25T12:49:48.834Z,125
2016-10-25T12:50:48.837Z,125
2016-10-25T12:51:48.829Z,120
2016-10-25T12:52:48.823Z,115
2016-10-25T12:53:48.818Z,110
2016-10-25T12:54:48.811Z,120
2016-10-25T12:55:48.798Z,125
2016-10-25T12:56:49.109Z,130
2016-10-25T12:57:48.789Z,130
2016-10-25T12:58:49.091Z,130
2016-10-25T13:00:53.046Z,115
2016-10-25T13:01:50.737Z,110
2016-10-25T13:02:51.593Z,105
2016-10-25T13:03:48.759Z,90
2016-10-25T13:04:48.761Z,80
2016-10-25T13:05:48.748Z,75
2016-10-25T13:06:48.797Z,75
2016-10-25T13:07:48.738Z,90
2016-10-25T13:08:51.021Z,100
2016-10-25T13:09:52.909Z,110
2016-10-25T13:10:51.042Z,110
2016-10-25T13:11:49.409Z,100
2016-10-25T13:12:49.643Z,85
2016-10-25T13:13:49.439Z,80
2016-10-25T13:14:48.696Z,85
2016-10-25T13:15:48.924Z,95
2016-10-25T13:16:48.691Z,100
2016-10-25T13:17:48.677Z,100
2016-10-25T13:18:48.672Z,100
2016-10-25T13:19:48.663Z,95
2016-10-25T13:20:48.662Z,95
2016-10-25T13:21:48.660Z,90
2016-10-25T13:22:48.644Z,80
2016-10-25T13:23:48.978Z,70
2016-10-25T13:24:48.694Z,60
2016-10-25T13:25:48.669Z,55
2016-10-25T13:26:48.634Z,60
2016-10-25T13:27:48.621Z,70
2016-10-25T13:28:48.620Z,70
2016-10-25T13:29:48.605Z,80
2016-10-25T13:30:48.614Z,90
2016-10-25T13:31:48.607Z,100
2016-10-25T13:32:48.597Z,105
2016-10-25T13:33:48.595Z,110
2016-10-25T13:34:48.585Z,110
2016-10-25T13:35:48.576Z,115
2016-10-25T13:36:48.570Z,115
2016-10-25T13:37:48.901Z,110
2016-10-25T13:38:48.562Z,105
2016-10-25T13:39:48.859Z,100
2016-10-25T13:40:48.549Z,95
2016-10-25T13:41:48.556Z,90
2016-10-25T13:42:48.547Z,85
2016-10-25T13:43:48.566Z,85
2016-10-25T13:44:48.527Z,85
2016-10-25T13:45:48.526Z,90
2016-10-25T13:46:48.517Z,90
2016-10-25T13:47:48.510Z,90
2016-10-25T13:48:48.506Z,85
2016-10-25T13:49:48.498Z,80
2016-10-25T13:50:48.502Z,70
2016-10-25T13:51:48.494Z,65
2016-10-25T13:52:50.985Z,60
2016-10-25T13:54:04.838Z,55
2016-10-25T13:54:49.066Z,55
2016-10-25T13:56:03.722Z,55
2016-10-25T13:56:48.459Z,55
2016-10-25T13:57:49.298Z,45
2016-10-25T13:58:48.439Z,50
2016-10-25T13:59:48.443Z,50
2016-10-25T14:00:48.752Z,50
2016-10-25T14:02:03.337Z,45
2016-10-25T14:02:50.624Z,40
2016-10-25T14:03:49.363Z,40
2016-10-25T14:06:03.617Z,70
2016-10-25T14:06:48.890Z,75
2016-10-25T14:07:48.699Z,80
2016-10-25T14:08:48.395Z,95
2016-10-25T14:09:48.379Z,115
2016-10-25T14:10:48.389Z,130
2016-10-25T14:11:48.372Z,140
2016-10-25T14:12:48.651Z,140
2016-10-25T14:13:48.359Z,130
2016-10-25T14:14:48.364Z,120
2016-10-25T14:15:48.359Z,100
2016-10-25T14:16:48.340Z,75
2016-10-25T14:17:51.370Z,55
2016-10-25T14:18:50.224Z,40
2016-10-25T14:19:50.524Z,40
2016-10-25T14:20:49.300Z,45
2016-10-25T14:21:49.961Z,55
2016-10-25T14:22:48.302Z,65
2016-10-25T14:23:49.077Z,65
2016-10-25T14:24:48.286Z,60
2016-10-25T14:25:48.406Z,55
2016-10-25T14:26:50.394Z,55
2016-10-25T14:27:49.839Z,55
2016-10-25T14:28:50.596Z,55
2016-10-25T14:29:49.822Z,60
2016-10-25T14:30:48.260Z,60
2016-10-25T14:31:48.893Z,65
2016-10-25T14:32:48.756Z,70
2016-10-25T14:33:48.232Z,70
2016-10-25T14:34:48.233Z,70
2016-10-25T14:35:48.221Z,65
2016-10-25T14:36:48.217Z,65
2016-10-25T14:37:48.203Z,65
2016-10-25T14:38:48.203Z,65
2016-10-25T14:39:48.214Z,65
2016-10-25T14:40:48.194Z,65
2016-10-25T14:41:48.175Z,60
2016-10-25T14:42:48.209Z,65